sensor_id;sensor_type;location;lat;lon;timestamp;P1;durP1;ratioP1;P2;durP2;ratioP2
51800;SDS011;37855;53.204;6.568;2023-07-20T00:01:19;5.35;;;3.05;;
51800;SDS011;37855;53.204;6.568;2023-07-20T00:03:45;6.85;;;2.72;;
51800;SDS011;37855;53.204;6.568;2023-07-20T00:06:13;5.10;;;2.57;;
51800;SDS011;37855;53.204;6.568;2023-07-20T00:08:39;4.65;;;2.80;;
51800;SDS011;37855;53.204;6.568;2023-07-20T00:11:04;6.10;;;2.80;;
51800;SDS011;37855;53.204;6.568;2023-07-20T00:13:30;5.95;;;2.97;;
51800;SDS011;37855;53.204;6.568;2023-07-20T00:15:56;5.30;;;3.00;;
51800;SDS011;37855;53.204;6.568;2023-07-20T00:18:21;4.95;;;2.72;;
51800;SDS011;37855;53.204;6.568;2023-07-20T00:20:47;5.00;;;3.03;;
51800;SDS011;37855;53.204;6.568;2023-07-20T00:23:14;6.65;;;2.92;;
51800;SDS011;37855;53.204;6.568;2023-07-20T00:25:40;5.97;;;2.72;;
51800;SDS011;37855;53.204;6.568;2023-07-20T00:28:05;6.63;;;2.40;;
51800;SDS011;37855;53.204;6.568;2023-07-20T00:30:31;4.67;;;2.30;;
51800;SDS011;37855;53.204;6.568;2023-07-20T00:32:57;6.13;;;2.63;;
51800;SDS011;37855;53.204;6.568;2023-07-20T00:35:22;5.20;;;2.90;;
51800;SDS011;37855;53.204;6.568;2023-07-20T00:37:48;5.18;;;2.60;;
51800;SDS011;37855;53.204;6.568;2023-07-20T00:40:14;4.38;;;2.38;;
51800;SDS011;37855;53.204;6.568;2023-07-20T00:42:40;5.40;;;2.30;;
51800;SDS011;37855;53.204;6.568;2023-07-20T00:45:06;4.88;;;2.40;;
51800;SDS011;37855;53.204;6.568;2023-07-20T00:47:32;5.85;;;2.38;;
51800;SDS011;37855;53.204;6.568;2023-07-20T00:49:58;5.23;;;2.70;;
51800;SDS011;37855;53.204;6.568;2023-07-20T00:52:24;5.15;;;2.60;;
51800;SDS011;37855;53.204;6.568;2023-07-20T00:54:52;5.60;;;2.72;;
51800;SDS011;37855;53.204;6.568;2023-07-20T00:57:21;5.93;;;2.80;;
51800;SDS011;37855;53.204;6.568;2023-07-20T00:59:49;6.83;;;2.60;;
51800;SDS011;37855;53.204;6.568;2023-07-20T01:02:14;6.40;;;2.75;;
51800;SDS011;37855;53.204;6.568;2023-07-20T01:04:40;3.97;;;2.67;;
51800;SDS011;37855;53.204;6.568;2023-07-20T01:12:54;4.32;;;2.53;;
51800;SDS011;37855;53.204;6.568;2023-07-20T01:15:21;4.47;;;2.50;;
51800;SDS011;37855;53.204;6.568;2023-07-20T01:17:47;4.93;;;2.60;;
51800;SDS011;37855;53.204;6.568;2023-07-20T01:20:14;4.33;;;2.80;;
51800;SDS011;37855;53.204;6.568;2023-07-20T01:33:56;5.10;;;2.93;;
51800;SDS011;37855;53.204;6.568;2023-07-20T01:36:24;7.60;;;3.00;;
51800;SDS011;37855;53.204;6.568;2023-07-20T01:38:52;5.30;;;3.10;;
51800;SDS011;37855;53.204;6.568;2023-07-20T01:41:18;5.78;;;2.90;;
51800;SDS011;37855;53.204;6.568;2023-07-20T01:43:44;5.97;;;3.07;;
51800;SDS011;37855;53.204;6.568;2023-07-20T01:46:09;5.72;;;3.00;;
51800;SDS011;37855;53.204;6.568;2023-07-20T01:48:35;6.30;;;3.13;;
51800;SDS011;37855;53.204;6.568;2023-07-20T01:51:01;6.78;;;3.10;;
51800;SDS011;37855;53.204;6.568;2023-07-20T01:53:26;6.17;;;2.90;;
51800;SDS011;37855;53.204;6.568;2023-07-20T01:55:53;7.07;;;3.05;;
51800;SDS011;37855;53.204;6.568;2023-07-20T01:58:19;6.15;;;3.00;;
51800;SDS011;37855;53.204;6.568;2023-07-20T02:00:45;6.13;;;3.37;;
51800;SDS011;37855;53.204;6.568;2023-07-20T02:03:11;5.78;;;3.05;;
51800;SDS011;37855;53.204;6.568;2023-07-20T02:05:37;5.07;;;2.85;;
51800;SDS011;37855;53.204;6.568;2023-07-20T02:08:03;6.43;;;3.03;;
51800;SDS011;37855;53.204;6.568;2023-07-20T02:10:29;6.13;;;3.28;;
51800;SDS011;37855;53.204;6.568;2023-07-20T02:12:55;4.88;;;3.13;;
51800;SDS011;37855;53.204;6.568;2023-07-20T02:15:21;5.85;;;3.15;;
51800;SDS011;37855;53.204;6.568;2023-07-20T02:17:47;4.90;;;3.00;;
51800;SDS011;37855;53.204;6.568;2023-07-20T02:20:13;4.75;;;2.92;;
51800;SDS011;37855;53.204;6.568;2023-07-20T02:22:39;6.03;;;2.97;;
51800;SDS011;37855;53.204;6.568;2023-07-20T02:25:05;5.55;;;3.00;;
51800;SDS011;37855;53.204;6.568;2023-07-20T02:27:32;6.00;;;3.35;;
51800;SDS011;37855;53.204;6.568;2023-07-20T02:29:59;5.55;;;3.20;;
51800;SDS011;37855;53.204;6.568;2023-07-20T02:32:24;5.40;;;3.03;;
51800;SDS011;37855;53.204;6.568;2023-07-20T02:34:50;5.70;;;3.00;;
51800;SDS011;37855;53.204;6.568;2023-07-20T02:37:16;5.90;;;3.27;;
51800;SDS011;37855;53.204;6.568;2023-07-20T02:39:42;7.05;;;3.00;;
51800;SDS011;37855;53.204;6.568;2023-07-20T02:42:08;5.30;;;2.88;;
51800;SDS011;37855;53.204;6.568;2023-07-20T02:44:34;5.27;;;2.77;;
51800;SDS011;37855;53.204;6.568;2023-07-20T02:46:59;6.00;;;2.92;;
51800;SDS011;37855;53.204;6.568;2023-07-20T02:49:26;7.35;;;2.97;;
51800;SDS011;37855;53.204;6.568;2023-07-20T02:51:52;6.40;;;3.40;;
51800;SDS011;37855;53.204;6.568;2023-07-20T02:54:17;6.53;;;3.13;;
51800;SDS011;37855;53.204;6.568;2023-07-20T02:56:43;6.47;;;3.60;;
51800;SDS011;37855;53.204;6.568;2023-07-20T02:59:09;9.00;;;3.45;;
51800;SDS011;37855;53.204;6.568;2023-07-20T03:01:35;6.77;;;3.40;;
51800;SDS011;37855;53.204;6.568;2023-07-20T03:04:00;5.43;;;3.23;;
51800;SDS011;37855;53.204;6.568;2023-07-20T03:06:27;5.75;;;3.00;;
51800;SDS011;37855;53.204;6.568;2023-07-20T03:08:53;7.63;;;3.27;;
51800;SDS011;37855;53.204;6.568;2023-07-20T03:11:19;7.50;;;3.47;;
51800;SDS011;37855;53.204;6.568;2023-07-20T03:13:46;6.45;;;3.20;;
51800;SDS011;37855;53.204;6.568;2023-07-20T03:16:13;6.50;;;3.47;;
51800;SDS011;37855;53.204;6.568;2023-07-20T03:18:40;5.88;;;3.28;;
51800;SDS011;37855;53.204;6.568;2023-07-20T03:21:07;5.63;;;3.13;;
51800;SDS011;37855;53.204;6.568;2023-07-20T03:23:33;6.82;;;3.03;;
51800;SDS011;37855;53.204;6.568;2023-07-20T03:26:00;7.32;;;3.10;;
51800;SDS011;37855;53.204;6.568;2023-07-20T03:28:25;7.17;;;3.27;;
51800;SDS011;37855;53.204;6.568;2023-07-20T03:30:54;7.63;;;3.30;;
51800;SDS011;37855;53.204;6.568;2023-07-20T03:33:30;5.80;;;3.30;;
51800;SDS011;37855;53.204;6.568;2023-07-20T03:35:56;5.67;;;2.90;;
51800;SDS011;37855;53.204;6.568;2023-07-20T03:38:23;5.40;;;3.10;;
51800;SDS011;37855;53.204;6.568;2023-07-20T03:40:50;4.85;;;2.60;;
51800;SDS011;37855;53.204;6.568;2023-07-20T03:43:20;5.10;;;2.80;;
51800;SDS011;37855;53.204;6.568;2023-07-20T03:45:46;5.95;;;2.97;;
51800;SDS011;37855;53.204;6.568;2023-07-20T03:48:13;5.47;;;3.10;;
51800;SDS011;37855;53.204;6.568;2023-07-20T03:50:46;5.65;;;3.00;;
51800;SDS011;37855;53.204;6.568;2023-07-20T03:53:13;5.10;;;2.95;;
51800;SDS011;37855;53.204;6.568;2023-07-20T03:55:39;7.00;;;3.03;;
51800;SDS011;37855;53.204;6.568;2023-07-20T03:58:06;5.38;;;2.85;;
51800;SDS011;37855;53.204;6.568;2023-07-20T04:00:33;5.40;;;2.47;;
51800;SDS011;37855;53.204;6.568;2023-07-20T04:02:59;7.25;;;2.80;;
51800;SDS011;37855;53.204;6.568;2023-07-20T04:05:25;7.22;;;3.00;;
51800;SDS011;37855;53.204;6.568;2023-07-20T04:07:51;6.47;;;2.83;;
51800;SDS011;37855;53.204;6.568;2023-07-20T04:10:17;5.20;;;2.70;;
51800;SDS011;37855;53.204;6.568;2023-07-20T04:12:44;6.88;;;2.60;;
51800;SDS011;37855;53.204;6.568;2023-07-20T04:15:12;4.38;;;2.78;;
51800;SDS011;37855;53.204;6.568;2023-07-20T04:17:38;6.15;;;2.90;;
51800;SDS011;37855;53.204;6.568;2023-07-20T04:20:04;8.43;;;3.30;;
51800;SDS011;37855;53.204;6.568;2023-07-20T04:22:31;5.88;;;3.00;;
51800;SDS011;37855;53.204;6.568;2023-07-20T04:24:56;7.82;;;3.20;;
51800;SDS011;37855;53.204;6.568;2023-07-20T04:27:22;5.07;;;2.97;;
51800;SDS011;37855;53.204;6.568;2023-07-20T04:29:47;6.22;;;3.05;;
51800;SDS011;37855;53.204;6.568;2023-07-20T04:32:13;10.50;;;3.90;;
51800;SDS011;37855;53.204;6.568;2023-07-20T04:34:39;6.50;;;2.42;;
51800;SDS011;37855;53.204;6.568;2023-07-20T04:37:04;4.20;;;2.40;;
51800;SDS011;37855;53.204;6.568;2023-07-20T04:39:30;4.25;;;2.30;;
51800;SDS011;37855;53.204;6.568;2023-07-20T04:41:56;4.00;;;2.50;;
51800;SDS011;37855;53.204;6.568;2023-07-20T04:44:22;5.75;;;2.40;;
51800;SDS011;37855;53.204;6.568;2023-07-20T04:46:48;5.57;;;2.63;;
51800;SDS011;37855;53.204;6.568;2023-07-20T04:49:14;5.85;;;2.92;;
51800;SDS011;37855;53.204;6.568;2023-07-20T04:51:39;5.80;;;2.60;;
51800;SDS011;37855;53.204;6.568;2023-07-20T04:54:05;5.10;;;2.45;;
51800;SDS011;37855;53.204;6.568;2023-07-20T04:56:31;4.97;;;2.60;;
51800;SDS011;37855;53.204;6.568;2023-07-20T04:58:56;5.07;;;2.88;;
51800;SDS011;37855;53.204;6.568;2023-07-20T05:01:23;7.00;;;2.50;;
51800;SDS011;37855;53.204;6.568;2023-07-20T05:03:48;4.65;;;2.58;;
51800;SDS011;37855;53.204;6.568;2023-07-20T05:06:14;4.20;;;2.23;;
51800;SDS011;37855;53.204;6.568;2023-07-20T05:08:40;7.67;;;2.80;;
51800;SDS011;37855;53.204;6.568;2023-07-20T05:11:06;4.63;;;2.38;;
51800;SDS011;37855;53.204;6.568;2023-07-20T05:13:32;6.00;;;2.70;;
51800;SDS011;37855;53.204;6.568;2023-07-20T05:15:58;6.53;;;2.47;;
51800;SDS011;37855;53.204;6.568;2023-07-20T05:18:24;5.30;;;2.65;;
51800;SDS011;37855;53.204;6.568;2023-07-20T05:20:50;5.22;;;2.33;;
51800;SDS011;37855;53.204;6.568;2023-07-20T05:23:19;3.87;;;2.30;;
51800;SDS011;37855;53.204;6.568;2023-07-20T05:25:45;5.10;;;2.30;;
51800;SDS011;37855;53.204;6.568;2023-07-20T05:28:11;4.30;;;2.40;;
51800;SDS011;37855;53.204;6.568;2023-07-20T05:30:36;6.50;;;2.65;;
51800;SDS011;37855;53.204;6.568;2023-07-20T05:33:02;5.17;;;2.20;;
51800;SDS011;37855;53.204;6.568;2023-07-20T05:35:28;4.35;;;1.95;;
51800;SDS011;37855;53.204;6.568;2023-07-20T05:37:54;5.97;;;2.40;;
51800;SDS011;37855;53.204;6.568;2023-07-20T05:40:20;6.20;;;2.42;;
51800;SDS011;37855;53.204;6.568;2023-07-20T05:42:46;7.47;;;2.35;;
51800;SDS011;37855;53.204;6.568;2023-07-20T05:45:17;4.43;;;2.10;;
51800;SDS011;37855;53.204;6.568;2023-07-20T05:47:43;4.30;;;2.00;;
51800;SDS011;37855;53.204;6.568;2023-07-20T05:50:09;4.60;;;1.73;;
51800;SDS011;37855;53.204;6.568;2023-07-20T05:52:35;5.80;;;2.10;;
51800;SDS011;37855;53.204;6.568;2023-07-20T05:55:01;5.78;;;1.90;;
51800;SDS011;37855;53.204;6.568;2023-07-20T05:57:28;3.90;;;1.50;;
51800;SDS011;37855;53.204;6.568;2023-07-20T05:59:53;5.17;;;1.73;;
51800;SDS011;37855;53.204;6.568;2023-07-20T06:02:19;5.65;;;1.80;;
51800;SDS011;37855;53.204;6.568;2023-07-20T06:04:45;6.77;;;1.80;;
51800;SDS011;37855;53.204;6.568;2023-07-20T06:07:10;5.88;;;1.83;;
51800;SDS011;37855;53.204;6.568;2023-07-20T06:09:36;5.63;;;1.63;;
51800;SDS011;37855;53.204;6.568;2023-07-20T06:12:02;3.47;;;1.65;;
51800;SDS011;37855;53.204;6.568;2023-07-20T06:14:28;5.87;;;1.50;;
51800;SDS011;37855;53.204;6.568;2023-07-20T06:16:54;4.27;;;1.67;;
51800;SDS011;37855;53.204;6.568;2023-07-20T06:19:20;6.00;;;1.70;;
51800;SDS011;37855;53.204;6.568;2023-07-20T06:21:47;5.90;;;1.40;;
51800;SDS011;37855;53.204;6.568;2023-07-20T06:24:15;4.97;;;1.57;;
51800;SDS011;37855;53.204;6.568;2023-07-20T06:26:41;4.93;;;1.50;;
51800;SDS011;37855;53.204;6.568;2023-07-20T06:29:07;4.70;;;1.63;;
51800;SDS011;37855;53.204;6.568;2023-07-20T06:31:33;5.60;;;1.80;;
51800;SDS011;37855;53.204;6.568;2023-07-20T06:33:59;5.82;;;1.50;;
51800;SDS011;37855;53.204;6.568;2023-07-20T06:36:26;3.63;;;1.52;;
51800;SDS011;37855;53.204;6.568;2023-07-20T06:38:52;5.40;;;1.70;;
51800;SDS011;37855;53.204;6.568;2023-07-20T06:41:18;6.40;;;1.83;;
51800;SDS011;37855;53.204;6.568;2023-07-20T06:43:44;3.88;;;1.73;;
51800;SDS011;37855;53.204;6.568;2023-07-20T06:46:10;4.10;;;1.40;;
51800;SDS011;37855;53.204;6.568;2023-07-20T06:48:35;9.40;;;2.30;;
51800;SDS011;37855;53.204;6.568;2023-07-20T06:51:01;5.45;;;1.60;;
51800;SDS011;37855;53.204;6.568;2023-07-20T06:53:28;6.78;;;1.80;;
51800;SDS011;37855;53.204;6.568;2023-07-20T06:55:57;5.17;;;1.60;;
51800;SDS011;37855;53.204;6.568;2023-07-20T06:58:25;3.50;;;1.52;;
51800;SDS011;37855;53.204;6.568;2023-07-20T07:00:51;4.43;;;1.80;;
51800;SDS011;37855;53.204;6.568;2023-07-20T07:03:17;6.43;;;1.70;;
51800;SDS011;37855;53.204;6.568;2023-07-20T07:05:43;5.18;;;1.70;;
51800;SDS011;37855;53.204;6.568;2023-07-20T07:08:10;8.43;;;1.90;;
51800;SDS011;37855;53.204;6.568;2023-07-20T07:10:36;4.47;;;1.50;;
51800;SDS011;37855;53.204;6.568;2023-07-20T07:13:02;5.45;;;1.70;;
51800;SDS011;37855;53.204;6.568;2023-07-20T07:15:28;6.60;;;1.70;;
51800;SDS011;37855;53.204;6.568;2023-07-20T07:17:54;7.23;;;2.20;;
51800;SDS011;37855;53.204;6.568;2023-07-20T07:20:20;4.78;;;1.77;;
51800;SDS011;37855;53.204;6.568;2023-07-20T07:22:46;6.65;;;1.92;;
51800;SDS011;37855;53.204;6.568;2023-07-20T07:25:12;6.50;;;2.00;;
51800;SDS011;37855;53.204;6.568;2023-07-20T07:27:39;8.87;;;1.77;;
51800;SDS011;37855;53.204;6.568;2023-07-20T07:30:05;7.07;;;2.13;;
51800;SDS011;37855;53.204;6.568;2023-07-20T07:32:31;6.05;;;1.88;;
51800;SDS011;37855;53.204;6.568;2023-07-20T07:34:57;7.57;;;2.40;;
51800;SDS011;37855;53.204;6.568;2023-07-20T07:37:25;6.68;;;2.10;;
51800;SDS011;37855;53.204;6.568;2023-07-20T07:39:51;7.47;;;1.85;;
51800;SDS011;37855;53.204;6.568;2023-07-20T07:42:17;10.00;;;2.50;;
51800;SDS011;37855;53.204;6.568;2023-07-20T07:44:44;8.48;;;2.10;;
51800;SDS011;37855;53.204;6.568;2023-07-20T07:47:10;6.35;;;2.25;;
51800;SDS011;37855;53.204;6.568;2023-07-20T07:49:35;9.87;;;2.47;;
51800;SDS011;37855;53.204;6.568;2023-07-20T07:52:01;7.78;;;2.20;;
51800;SDS011;37855;53.204;6.568;2023-07-20T07:54:27;7.40;;;2.10;;
51800;SDS011;37855;53.204;6.568;2023-07-20T07:56:54;8.50;;;2.13;;
51800;SDS011;37855;53.204;6.568;2023-07-20T07:59:20;7.57;;;2.42;;
51800;SDS011;37855;53.204;6.568;2023-07-20T08:01:45;8.43;;;1.90;;
51800;SDS011;37855;53.204;6.568;2023-07-20T08:04:11;9.82;;;2.85;;
51800;SDS011;37855;53.204;6.568;2023-07-20T08:06:38;4.95;;;2.20;;
51800;SDS011;37855;53.204;6.568;2023-07-20T08:09:04;8.03;;;2.20;;
51800;SDS011;37855;53.204;6.568;2023-07-20T08:11:30;7.45;;;1.67;;
51800;SDS011;37855;53.204;6.568;2023-07-20T08:13:58;5.68;;;1.60;;
51800;SDS011;37855;53.204;6.568;2023-07-20T08:16:30;5.95;;;1.70;;
51800;SDS011;37855;53.204;6.568;2023-07-20T08:18:55;6.60;;;1.80;;
51800;SDS011;37855;53.204;6.568;2023-07-20T08:21:21;9.07;;;1.90;;
51800;SDS011;37855;53.204;6.568;2023-07-20T08:23:47;5.43;;;1.75;;
51800;SDS011;37855;53.204;6.568;2023-07-20T08:26:12;7.00;;;1.57;;
51800;SDS011;37855;53.204;6.568;2023-07-20T08:28:38;7.38;;;1.67;;
51800;SDS011;37855;53.204;6.568;2023-07-20T08:31:05;5.77;;;1.70;;
51800;SDS011;37855;53.204;6.568;2023-07-20T08:33:32;4.20;;;1.40;;
51800;SDS011;37855;53.204;6.568;2023-07-20T08:35:59;7.10;;;1.92;;
51800;SDS011;37855;53.204;6.568;2023-07-20T08:38:26;4.05;;;1.20;;
51800;SDS011;37855;53.204;6.568;2023-07-20T08:40:52;4.80;;;1.42;;
51800;SDS011;37855;53.204;6.568;2023-07-20T08:43:24;4.30;;;1.43;;
51800;SDS011;37855;53.204;6.568;2023-07-20T08:45:50;6.13;;;1.40;;
51800;SDS011;37855;53.204;6.568;2023-07-20T08:48:19;3.22;;;1.25;;
51800;SDS011;37855;53.204;6.568;2023-07-20T08:50:45;5.13;;;1.30;;
51800;SDS011;37855;53.204;6.568;2023-07-20T08:53:15;3.28;;;1.40;;
51800;SDS011;37855;53.204;6.568;2023-07-20T08:55:42;5.87;;;1.60;;
51800;SDS011;37855;53.204;6.568;2023-07-20T08:58:11;4.80;;;1.50;;
51800;SDS011;37855;53.204;6.568;2023-07-20T09:00:39;5.10;;;1.27;;
51800;SDS011;37855;53.204;6.568;2023-07-20T09:03:06;3.45;;;1.33;;
51800;SDS011;37855;53.204;6.568;2023-07-20T09:05:33;4.68;;;1.60;;
51800;SDS011;37855;53.204;6.568;2023-07-20T09:08:00;4.77;;;1.37;;
51800;SDS011;37855;53.204;6.568;2023-07-20T09:10:27;6.63;;;1.33;;
51800;SDS011;37855;53.204;6.568;2023-07-20T09:12:53;4.65;;;1.48;;
51800;SDS011;37855;53.204;6.568;2023-07-20T09:15:20;6.87;;;1.40;;
51800;SDS011;37855;53.204;6.568;2023-07-20T09:17:47;5.63;;;1.42;;
51800;SDS011;37855;53.204;6.568;2023-07-20T09:20:18;4.03;;;1.30;;
51800;SDS011;37855;53.204;6.568;2023-07-20T09:22:45;4.32;;;1.40;;
51800;SDS011;37855;53.204;6.568;2023-07-20T09:25:18;5.05;;;1.30;;
51800;SDS011;37855;53.204;6.568;2023-07-20T09:27:45;4.77;;;1.33;;
51800;SDS011;37855;53.204;6.568;2023-07-20T09:30:13;4.43;;;1.20;;
51800;SDS011;37855;53.204;6.568;2023-07-20T09:32:44;4.40;;;1.40;;
51800;SDS011;37855;53.204;6.568;2023-07-20T09:35:17;4.60;;;1.10;;
51800;SDS011;37855;53.204;6.568;2023-07-20T09:38:00;6.47;;;1.15;;
51800;SDS011;37855;53.204;6.568;2023-07-20T09:40:27;2.93;;;1.27;;
51800;SDS011;37855;53.204;6.568;2023-07-20T09:42:53;3.25;;;1.10;;
51800;SDS011;37855;53.204;6.568;2023-07-20T09:45:29;3.47;;;1.10;;
51800;SDS011;37855;53.204;6.568;2023-07-20T09:48:04;2.67;;;1.27;;
51800;SDS011;37855;53.204;6.568;2023-07-20T09:50:41;3.72;;;1.35;;
51800;SDS011;37855;53.204;6.568;2023-07-20T09:53:17;4.50;;;1.20;;
51800;SDS011;37855;53.204;6.568;2023-07-20T09:55:44;5.43;;;1.33;;
51800;SDS011;37855;53.204;6.568;2023-07-20T09:58:11;4.05;;;1.25;;
51800;SDS011;37855;53.204;6.568;2023-07-20T10:00:38;7.35;;;1.55;;
51800;SDS011;37855;53.204;6.568;2023-07-20T10:03:05;4.97;;;1.20;;
51800;SDS011;37855;53.204;6.568;2023-07-20T10:05:32;7.07;;;1.70;;
51800;SDS011;37855;53.204;6.568;2023-07-20T10:08:00;4.15;;;1.20;;
51800;SDS011;37855;53.204;6.568;2023-07-20T10:10:27;4.00;;;1.15;;
51800;SDS011;37855;53.204;6.568;2023-07-20T10:12:54;3.30;;;1.30;;
51800;SDS011;37855;53.204;6.568;2023-07-20T10:15:32;3.47;;;1.37;;
51800;SDS011;37855;53.204;6.568;2023-07-20T10:20:56;2.92;;;1.27;;
51800;SDS011;37855;53.204;6.568;2023-07-20T10:23:23;6.10;;;1.40;;
51800;SDS011;37855;53.204;6.568;2023-07-20T10:25:49;4.40;;;1.40;;
51800;SDS011;37855;53.204;6.568;2023-07-20T10:28:15;6.07;;;1.20;;
51800;SDS011;37855;53.204;6.568;2023-07-20T10:30:41;5.13;;;1.50;;
51800;SDS011;37855;53.204;6.568;2023-07-20T10:33:08;2.80;;;1.20;;
51800;SDS011;37855;53.204;6.568;2023-07-20T10:35:53;5.70;;;1.20;;
51800;SDS011;37855;53.204;6.568;2023-07-20T10:38:37;4.13;;;1.20;;
51800;SDS011;37855;53.204;6.568;2023-07-20T10:41:21;4.07;;;1.20;;
51800;SDS011;37855;53.204;6.568;2023-07-20T10:43:55;4.82;;;1.30;;
51800;SDS011;37855;53.204;6.568;2023-07-20T10:49:05;2.70;;;1.30;;
51800;SDS011;37855;53.204;6.568;2023-07-20T10:51:48;3.35;;;1.40;;
51800;SDS011;37855;53.204;6.568;2023-07-20T10:56:49;4.27;;;1.40;;
51800;SDS011;37855;53.204;6.568;2023-07-20T10:59:19;3.70;;;1.30;;
51800;SDS011;37855;53.204;6.568;2023-07-20T11:02:05;5.03;;;1.48;;
51800;SDS011;37855;53.204;6.568;2023-07-20T11:04:39;4.80;;;1.20;;
51800;SDS011;37855;53.204;6.568;2023-07-20T11:07:05;5.18;;;1.20;;
51800;SDS011;37855;53.204;6.568;2023-07-20T11:09:34;5.50;;;1.50;;
51800;SDS011;37855;53.204;6.568;2023-07-20T11:14:42;4.55;;;1.00;;
51800;SDS011;37855;53.204;6.568;2023-07-20T11:17:17;3.13;;;1.15;;
51800;SDS011;37855;53.204;6.568;2023-07-20T11:19:48;5.33;;;1.30;;
51800;SDS011;37855;53.204;6.568;2023-07-20T11:22:16;2.10;;;1.00;;
51800;SDS011;37855;53.204;6.568;2023-07-20T11:24:42;2.58;;;1.05;;
51800;SDS011;37855;53.204;6.568;2023-07-20T11:27:08;4.20;;;1.23;;
51800;SDS011;37855;53.204;6.568;2023-07-20T11:29:34;4.37;;;1.20;;
51800;SDS011;37855;53.204;6.568;2023-07-20T11:32:02;4.43;;;1.20;;
51800;SDS011;37855;53.204;6.568;2023-07-20T11:34:29;3.75;;;1.35;;
51800;SDS011;37855;53.204;6.568;2023-07-20T11:36:56;6.20;;;1.20;;
51800;SDS011;37855;53.204;6.568;2023-07-20T11:39:22;4.82;;;1.42;;
51800;SDS011;37855;53.204;6.568;2023-07-20T11:41:54;5.30;;;1.30;;
51800;SDS011;37855;53.204;6.568;2023-07-20T11:44:24;3.50;;;1.40;;
51800;SDS011;37855;53.204;6.568;2023-07-20T11:47:05;4.10;;;1.20;;
51800;SDS011;37855;53.204;6.568;2023-07-20T11:49:36;6.25;;;1.30;;
51800;SDS011;37855;53.204;6.568;2023-07-20T11:52:07;4.05;;;1.23;;
51800;SDS011;37855;53.204;6.568;2023-07-20T11:54:36;4.30;;;1.17;;
51800;SDS011;37855;53.204;6.568;2023-07-20T11:57:04;3.17;;;1.20;;
51800;SDS011;37855;53.204;6.568;2023-07-20T11:59:30;5.15;;;1.17;;
51800;SDS011;37855;53.204;6.568;2023-07-20T12:01:57;4.28;;;1.38;;
51800;SDS011;37855;53.204;6.568;2023-07-20T12:04:28;3.70;;;1.30;;
51800;SDS011;37855;53.204;6.568;2023-07-20T12:06:54;6.30;;;1.83;;
51800;SDS011;37855;53.204;6.568;2023-07-20T12:09:23;3.58;;;1.20;;
51800;SDS011;37855;53.204;6.568;2023-07-20T12:11:49;3.25;;;1.50;;
51800;SDS011;37855;53.204;6.568;2023-07-20T12:14:15;5.65;;;1.20;;
51800;SDS011;37855;53.204;6.568;2023-07-20T12:16:41;4.33;;;1.30;;
51800;SDS011;37855;53.204;6.568;2023-07-20T12:19:09;4.35;;;1.55;;
51800;SDS011;37855;53.204;6.568;2023-07-20T12:21:39;4.00;;;1.67;;
51800;SDS011;37855;53.204;6.568;2023-07-20T12:24:07;2.47;;;1.33;;
51800;SDS011;37855;53.204;6.568;2023-07-20T12:26:35;3.22;;;1.20;;
51800;SDS011;37855;53.204;6.568;2023-07-20T12:29:01;3.47;;;1.30;;
51800;SDS011;37855;53.204;6.568;2023-07-20T12:31:28;3.53;;;1.10;;
51800;SDS011;37855;53.204;6.568;2023-07-20T12:33:56;5.20;;;1.58;;
51800;SDS011;37855;53.204;6.568;2023-07-20T12:36:22;4.43;;;1.27;;
51800;SDS011;37855;53.204;6.568;2023-07-20T12:38:48;5.22;;;1.20;;
51800;SDS011;37855;53.204;6.568;2023-07-20T12:41:14;2.43;;;1.10;;
51800;SDS011;37855;53.204;6.568;2023-07-20T12:43:43;4.28;;;1.40;;
51800;SDS011;37855;53.204;6.568;2023-07-20T12:46:10;3.70;;;1.20;;
51800;SDS011;37855;53.204;6.568;2023-07-20T12:48:39;4.07;;;1.30;;
51800;SDS011;37855;53.204;6.568;2023-07-20T12:51:07;5.90;;;1.38;;
51800;SDS011;37855;53.204;6.568;2023-07-20T12:53:34;2.38;;;1.20;;
51800;SDS011;37855;53.204;6.568;2023-07-20T12:55:59;3.93;;;1.40;;
51800;SDS011;37855;53.204;6.568;2023-07-20T12:58:26;5.32;;;1.80;;
51800;SDS011;37855;53.204;6.568;2023-07-20T13:00:52;5.70;;;1.45;;
51800;SDS011;37855;53.204;6.568;2023-07-20T13:03:18;6.30;;;1.67;;
51800;SDS011;37855;53.204;6.568;2023-07-20T13:05:44;3.83;;;1.60;;
51800;SDS011;37855;53.204;6.568;2023-07-20T13:08:10;5.03;;;1.50;;
51800;SDS011;37855;53.204;6.568;2023-07-20T13:10:37;5.50;;;1.67;;
51800;SDS011;37855;53.204;6.568;2023-07-20T13:13:03;5.75;;;2.08;;
51800;SDS011;37855;53.204;6.568;2023-07-20T13:15:30;7.13;;;1.58;;
51800;SDS011;37855;53.204;6.568;2023-07-20T13:17:57;4.30;;;1.38;;
51800;SDS011;37855;53.204;6.568;2023-07-20T13:20:23;4.20;;;1.30;;
51800;SDS011;37855;53.204;6.568;2023-07-20T13:22:50;4.72;;;1.20;;
51800;SDS011;37855;53.204;6.568;2023-07-20T13:25:16;2.92;;;1.35;;
51800;SDS011;37855;53.204;6.568;2023-07-20T13:27:42;3.87;;;1.50;;
51800;SDS011;37855;53.204;6.568;2023-07-20T13:30:08;4.68;;;1.55;;
51800;SDS011;37855;53.204;6.568;2023-07-20T13:32:39;5.97;;;1.55;;
51800;SDS011;37855;53.204;6.568;2023-07-20T13:35:05;3.30;;;1.35;;
51800;SDS011;37855;53.204;6.568;2023-07-20T13:37:31;5.47;;;1.42;;
51800;SDS011;37855;53.204;6.568;2023-07-20T13:39:56;5.37;;;1.50;;
51800;SDS011;37855;53.204;6.568;2023-07-20T13:42:33;4.47;;;1.40;;
51800;SDS011;37855;53.204;6.568;2023-07-20T13:44:59;5.50;;;1.67;;
51800;SDS011;37855;53.204;6.568;2023-07-20T13:47:28;5.07;;;1.43;;
51800;SDS011;37855;53.204;6.568;2023-07-20T13:49:54;3.58;;;1.10;;
51800;SDS011;37855;53.204;6.568;2023-07-20T13:52:21;3.55;;;1.50;;
51800;SDS011;37855;53.204;6.568;2023-07-20T13:54:46;5.65;;;1.50;;
51800;SDS011;37855;53.204;6.568;2023-07-20T13:57:12;3.40;;;1.30;;
51800;SDS011;37855;53.204;6.568;2023-07-20T13:59:38;4.55;;;1.63;;
51800;SDS011;37855;53.204;6.568;2023-07-20T14:02:05;2.90;;;1.50;;
51800;SDS011;37855;53.204;6.568;2023-07-20T14:04:34;3.78;;;1.60;;
51800;SDS011;37855;53.204;6.568;2023-07-20T14:07:00;4.50;;;1.50;;
51800;SDS011;37855;53.204;6.568;2023-07-20T14:09:26;3.23;;;1.40;;
51800;SDS011;37855;53.204;6.568;2023-07-20T14:11:52;6.38;;;1.60;;
51800;SDS011;37855;53.204;6.568;2023-07-20T14:14:17;3.30;;;1.30;;
51800;SDS011;37855;53.204;6.568;2023-07-20T14:16:44;4.43;;;1.38;;
51800;SDS011;37855;53.204;6.568;2023-07-20T14:19:10;2.63;;;1.20;;
51800;SDS011;37855;53.204;6.568;2023-07-20T14:21:35;3.10;;;1.23;;
51800;SDS011;37855;53.204;6.568;2023-07-20T14:24:01;4.93;;;1.40;;
51800;SDS011;37855;53.204;6.568;2023-07-20T14:26:27;2.72;;;1.27;;
51800;SDS011;37855;53.204;6.568;2023-07-20T14:28:53;3.67;;;1.10;;
51800;SDS011;37855;53.204;6.568;2023-07-20T14:31:18;4.30;;;1.30;;
51800;SDS011;37855;53.204;6.568;2023-07-20T14:33:45;3.95;;;1.27;;
51800;SDS011;37855;53.204;6.568;2023-07-20T14:36:10;4.13;;;1.57;;
51800;SDS011;37855;53.204;6.568;2023-07-20T14:38:36;6.30;;;1.43;;
51800;SDS011;37855;53.204;6.568;2023-07-20T14:41:02;3.80;;;1.20;;
51800;SDS011;37855;53.204;6.568;2023-07-20T14:43:28;3.03;;;1.17;;
51800;SDS011;37855;53.204;6.568;2023-07-20T14:45:54;4.93;;;1.40;;
51800;SDS011;37855;53.204;6.568;2023-07-20T14:48:20;4.40;;;1.55;;
51800;SDS011;37855;53.204;6.568;2023-07-20T14:50:46;5.10;;;1.27;;
51800;SDS011;37855;53.204;6.568;2023-07-20T14:53:15;5.72;;;1.60;;
51800;SDS011;37855;53.204;6.568;2023-07-20T14:55:41;3.72;;;1.40;;
51800;SDS011;37855;53.204;6.568;2023-07-20T14:58:07;4.28;;;1.52;;
51800;SDS011;37855;53.204;6.568;2023-07-20T15:00:33;6.00;;;1.57;;
51800;SDS011;37855;53.204;6.568;2023-07-20T15:02:59;5.97;;;1.60;;
51800;SDS011;37855;53.204;6.568;2023-07-20T15:05:24;6.17;;;1.73;;
51800;SDS011;37855;53.204;6.568;2023-07-20T15:07:51;4.45;;;1.80;;
51800;SDS011;37855;53.204;6.568;2023-07-20T15:10:18;5.88;;;1.65;;
51800;SDS011;37855;53.204;6.568;2023-07-20T15:12:44;3.95;;;1.42;;
51800;SDS011;37855;53.204;6.568;2023-07-20T15:15:10;3.77;;;1.70;;